Terminal Aerodrome Forecast
Issued by NWS Wilmington, OH

Current Version | Previous Version | Graphics & Text | Print | Product List | Glossary On
Versions: 1 2 3 4 5 6 7 8 9 10 11 12 13 14 15 16 17 18 19 20 21 22 23 24 25 26 27 28 29 30 31 32 33 34 35
000
FTUS41 KILN 291600 AAA
TAFDAY
TAF AMD
KDAY 291627Z 2916/3012 20016G24KT P6SM BKN040 OVC120
     FM291700 23016G26KT P6SM VCSH BKN022 OVC120
     FM292000 28018G28KT P6SM OVC009
     FM300000 29016G24KT P6SM OVC012
     FM300900 31014G22KT P6SM OVC022=

USA.gov is the U.S. government's official web portal to all federal, state and local government web resources and services.